sensor_id;sensor_type;location;lat;lon;timestamp;pressure;altitude;pressure_sealevel;temperature
60966;BMP180;46834;51.100;6.886;2023-02-26T00:01:18;101065.00;;;7.20
60966;BMP180;46834;51.100;6.886;2023-02-26T00:03:51;101065.00;;;7.20
60966;BMP180;46834;51.100;6.886;2023-02-26T00:06:17;101057.00;;;7.20
60966;BMP180;46834;51.100;6.886;2023-02-26T00:08:43;101074.00;;;7.20
60966;BMP180;46834;51.100;6.886;2023-02-26T00:11:10;101083.00;;;7.20
60966;BMP180;46834;51.100;6.886;2023-02-26T00:13:38;101083.00;;;7.20
60966;BMP180;46834;51.100;6.886;2023-02-26T00:16:22;101086.00;;;7.20
60966;BMP180;46834;51.100;6.886;2023-02-26T00:18:49;101075.00;;;7.20
60966;BMP180;46834;51.100;6.886;2023-02-26T00:21:18;101089.00;;;7.20
60966;BMP180;46834;51.100;6.886;2023-02-26T00:23:44;101091.00;;;7.20
60966;BMP180;46834;51.100;6.886;2023-02-26T00:26:10;101093.00;;;7.10
60966;BMP180;46834;51.100;6.886;2023-02-26T00:28:36;101103.00;;;7.10
60966;BMP180;46834;51.100;6.886;2023-02-26T00:31:03;101095.00;;;7.10
60966;BMP180;46834;51.100;6.886;2023-02-26T00:33:29;101104.00;;;7.10
60966;BMP180;46834;51.100;6.886;2023-02-26T00:36:20;101106.00;;;7.10
60966;BMP180;46834;51.100;6.886;2023-02-26T00:41:39;101115.00;;;7.10
60966;BMP180;46834;51.100;6.886;2023-02-26T00:44:05;101117.00;;;7.10
60966;BMP180;46834;51.100;6.886;2023-02-26T00:46:40;101119.00;;;7.00
60966;BMP180;46834;51.100;6.886;2023-02-26T00:49:32;101130.00;;;7.00
60966;BMP180;46834;51.100;6.886;2023-02-26T00:52:05;101117.00;;;7.00
60966;BMP180;46834;51.100;6.886;2023-02-26T00:54:35;101120.00;;;7.00
60966;BMP180;46834;51.100;6.886;2023-02-26T00:57:01;101129.00;;;7.00
60966;BMP180;46834;51.100;6.886;2023-02-26T00:59:28;101125.00;;;7.00
60966;BMP180;46834;51.100;6.886;2023-02-26T01:01:54;101129.00;;;7.00
60966;BMP180;46834;51.100;6.886;2023-02-26T01:04:22;101123.00;;;6.90
60966;BMP180;46834;51.100;6.886;2023-02-26T01:06:53;101134.00;;;6.90
60966;BMP180;46834;51.100;6.886;2023-02-26T01:09:24;101132.00;;;6.90
60966;BMP180;46834;51.100;6.886;2023-02-26T01:11:52;101135.00;;;6.90
60966;BMP180;46834;51.100;6.886;2023-02-26T01:14:19;101142.00;;;6.90
60966;BMP180;46834;51.100;6.886;2023-02-26T01:18:01;101141.00;;;6.80
60966;BMP180;46834;51.100;6.886;2023-02-26T01:20:30;101139.00;;;6.80
60966;BMP180;46834;51.100;6.886;2023-02-26T01:23:05;101123.00;;;6.80
60966;BMP180;46834;51.100;6.886;2023-02-26T01:25:51;101126.00;;;6.80
60966;BMP180;46834;51.100;6.886;2023-02-26T01:28:19;101127.00;;;6.80
60966;BMP180;46834;51.100;6.886;2023-02-26T01:30:45;101119.00;;;6.80
60966;BMP180;46834;51.100;6.886;2023-02-26T01:33:40;101122.00;;;6.80
60966;BMP180;46834;51.100;6.886;2023-02-26T01:36:22;101127.00;;;6.70
60966;BMP180;46834;51.100;6.886;2023-02-26T01:39:25;101110.00;;;6.70
60966;BMP180;46834;51.100;6.886;2023-02-26T01:41:59;101129.00;;;6.70
60966;BMP180;46834;51.100;6.886;2023-02-26T01:47:20;101127.00;;;6.70
60966;BMP180;46834;51.100;6.886;2023-02-26T01:49:46;101136.00;;;6.80
60966;BMP180;46834;51.100;6.886;2023-02-26T01:55:21;101142.00;;;6.80
60966;BMP180;46834;51.100;6.886;2023-02-26T01:57:51;101136.00;;;6.80
60966;BMP180;46834;51.100;6.886;2023-02-26T02:00:18;101132.00;;;6.80
60966;BMP180;46834;51.100;6.886;2023-02-26T02:02:44;101131.00;;;6.80
60966;BMP180;46834;51.100;6.886;2023-02-26T02:05:39;101152.00;;;6.70
60966;BMP180;46834;51.100;6.886;2023-02-26T02:08:07;101144.00;;;6.80
60966;BMP180;46834;51.100;6.886;2023-02-26T02:10:33;101137.00;;;6.80
60966;BMP180;46834;51.100;6.886;2023-02-26T02:22:12;101153.00;;;6.70
60966;BMP180;46834;51.100;6.886;2023-02-26T02:28:02;101163.00;;;6.60
60966;BMP180;46834;51.100;6.886;2023-02-26T02:30:38;101168.00;;;6.60
60966;BMP180;46834;51.100;6.886;2023-02-26T02:33:18;101173.00;;;6.60
60966;BMP180;46834;51.100;6.886;2023-02-26T02:35:56;101179.00;;;6.60
60966;BMP180;46834;51.100;6.886;2023-02-26T02:38:41;101167.00;;;6.60
60966;BMP180;46834;51.100;6.886;2023-02-26T02:41:38;101188.00;;;6.60
60966;BMP180;46834;51.100;6.886;2023-02-26T02:44:11;101203.00;;;6.60
60966;BMP180;46834;51.100;6.886;2023-02-26T02:46:42;101193.00;;;6.60
60966;BMP180;46834;51.100;6.886;2023-02-26T02:49:17;101201.00;;;6.50
60966;BMP180;46834;51.100;6.886;2023-02-26T02:51:54;101212.00;;;6.50
60966;BMP180;46834;51.100;6.886;2023-02-26T02:55:12;101209.00;;;6.50
60966;BMP180;46834;51.100;6.886;2023-02-26T02:57:39;101216.00;;;6.50
60966;BMP180;46834;51.100;6.886;2023-02-26T03:00:11;101204.00;;;6.40
60966;BMP180;46834;51.100;6.886;2023-02-26T03:05:22;101215.00;;;6.50
60966;BMP180;46834;51.100;6.886;2023-02-26T03:07:55;101220.00;;;6.40
60966;BMP180;46834;51.100;6.886;2023-02-26T03:10:22;101223.00;;;6.40
60966;BMP180;46834;51.100;6.886;2023-02-26T03:12:48;101215.00;;;6.40
60966;BMP180;46834;51.100;6.886;2023-02-26T03:15:17;101216.00;;;6.40
60966;BMP180;46834;51.100;6.886;2023-02-26T03:17:53;101209.00;;;6.40
60966;BMP180;46834;51.100;6.886;2023-02-26T03:20:35;101218.00;;;6.30
60966;BMP180;46834;51.100;6.886;2023-02-26T03:23:25;101213.00;;;6.30
60966;BMP180;46834;51.100;6.886;2023-02-26T03:26:01;101234.00;;;6.30
60966;BMP180;46834;51.100;6.886;2023-02-26T03:29:00;101232.00;;;6.20
60966;BMP180;46834;51.100;6.886;2023-02-26T03:31:35;101241.00;;;6.20
60966;BMP180;46834;51.100;6.886;2023-02-26T03:34:16;101246.00;;;6.20
60966;BMP180;46834;51.100;6.886;2023-02-26T03:36:57;101253.00;;;6.20
60966;BMP180;46834;51.100;6.886;2023-02-26T03:39:45;101248.00;;;6.10
60966;BMP180;46834;51.100;6.886;2023-02-26T03:42:25;101240.00;;;6.10
60966;BMP180;46834;51.100;6.886;2023-02-26T03:45:00;101259.00;;;6.10
60966;BMP180;46834;51.100;6.886;2023-02-26T03:47:30;101278.00;;;6.10
60966;BMP180;46834;51.100;6.886;2023-02-26T03:52:51;101278.00;;;6.10
60966;BMP180;46834;51.100;6.886;2023-02-26T03:55:28;101269.00;;;6.00
60966;BMP180;46834;51.100;6.886;2023-02-26T03:57:55;101279.00;;;6.00
60966;BMP180;46834;51.100;6.886;2023-02-26T04:00:21;101273.00;;;6.00
60966;BMP180;46834;51.100;6.886;2023-02-26T04:03:03;101280.00;;;6.00
60966;BMP180;46834;51.100;6.886;2023-02-26T04:05:38;101282.00;;;6.00
60966;BMP180;46834;51.100;6.886;2023-02-26T04:08:05;101276.00;;;6.00
60966;BMP180;46834;51.100;6.886;2023-02-26T04:10:44;101276.00;;;5.90
60966;BMP180;46834;51.100;6.886;2023-02-26T04:13:11;101278.00;;;6.00
60966;BMP180;46834;51.100;6.886;2023-02-26T04:15:37;101276.00;;;6.00
60966;BMP180;46834;51.100;6.886;2023-02-26T04:18:04;101275.00;;;5.90
60966;BMP180;46834;51.100;6.886;2023-02-26T04:20:29;101283.00;;;5.90
60966;BMP180;46834;51.100;6.886;2023-02-26T04:22:55;101286.00;;;5.90
60966;BMP180;46834;51.100;6.886;2023-02-26T04:25:21;101295.00;;;5.90
60966;BMP180;46834;51.100;6.886;2023-02-26T04:27:46;101303.00;;;5.90
60966;BMP180;46834;51.100;6.886;2023-02-26T04:30:12;101289.00;;;5.90
60966;BMP180;46834;51.100;6.886;2023-02-26T04:32:38;101304.00;;;5.90
60966;BMP180;46834;51.100;6.886;2023-02-26T04:35:04;101292.00;;;5.90
60966;BMP180;46834;51.100;6.886;2023-02-26T04:37:30;101309.00;;;5.90
60966;BMP180;46834;51.100;6.886;2023-02-26T04:39:55;101315.00;;;5.80
60966;BMP180;46834;51.100;6.886;2023-02-26T04:42:21;101309.00;;;5.80
60966;BMP180;46834;51.100;6.886;2023-02-26T04:44:47;101310.00;;;5.80
60966;BMP180;46834;51.100;6.886;2023-02-26T04:47:12;101318.00;;;5.80
60966;BMP180;46834;51.100;6.886;2023-02-26T04:49:38;101322.00;;;5.80
60966;BMP180;46834;51.100;6.886;2023-02-26T04:52:04;101326.00;;;5.80
60966;BMP180;46834;51.100;6.886;2023-02-26T04:54:30;101323.00;;;5.80
60966;BMP180;46834;51.100;6.886;2023-02-26T04:56:55;101307.00;;;5.80
60966;BMP180;46834;51.100;6.886;2023-02-26T04:59:21;101316.00;;;5.70
60966;BMP180;46834;51.100;6.886;2023-02-26T05:01:47;101334.00;;;5.70
60966;BMP180;46834;51.100;6.886;2023-02-26T05:04:13;101315.00;;;5.70
60966;BMP180;46834;51.100;6.886;2023-02-26T05:06:38;101345.00;;;5.70
60966;BMP180;46834;51.100;6.886;2023-02-26T05:09:04;101345.00;;;5.70
60966;BMP180;46834;51.100;6.886;2023-02-26T05:11:30;101343.00;;;5.70
60966;BMP180;46834;51.100;6.886;2023-02-26T05:13:55;101347.00;;;5.70
60966;BMP180;46834;51.100;6.886;2023-02-26T05:16:21;101352.00;;;5.60
60966;BMP180;46834;51.100;6.886;2023-02-26T05:18:47;101341.00;;;5.60
60966;BMP180;46834;51.100;6.886;2023-02-26T05:21:12;101352.00;;;5.60
60966;BMP180;46834;51.100;6.886;2023-02-26T05:23:38;101351.00;;;5.60
60966;BMP180;46834;51.100;6.886;2023-02-26T05:26:04;101370.00;;;5.60
60966;BMP180;46834;51.100;6.886;2023-02-26T05:28:30;101361.00;;;5.60
60966;BMP180;46834;51.100;6.886;2023-02-26T05:30:56;101368.00;;;5.60
60966;BMP180;46834;51.100;6.886;2023-02-26T05:33:23;101359.00;;;5.60
60966;BMP180;46834;51.100;6.886;2023-02-26T05:35:48;101368.00;;;5.60
60966;BMP180;46834;51.100;6.886;2023-02-26T05:38:14;101375.00;;;5.50
60966;BMP180;46834;51.100;6.886;2023-02-26T05:40:40;101365.00;;;5.50
60966;BMP180;46834;51.100;6.886;2023-02-26T05:43:06;101373.00;;;5.50
60966;BMP180;46834;51.100;6.886;2023-02-26T05:45:31;101382.00;;;5.50
60966;BMP180;46834;51.100;6.886;2023-02-26T05:47:57;101378.00;;;5.50
60966;BMP180;46834;51.100;6.886;2023-02-26T05:50:23;101374.00;;;5.50
60966;BMP180;46834;51.100;6.886;2023-02-26T05:52:49;101384.00;;;5.50
60966;BMP180;46834;51.100;6.886;2023-02-26T05:55:14;101380.00;;;5.40
60966;BMP180;46834;51.100;6.886;2023-02-26T05:57:41;101374.00;;;5.40
60966;BMP180;46834;51.100;6.886;2023-02-26T06:00:08;101395.00;;;5.40
60966;BMP180;46834;51.100;6.886;2023-02-26T06:02:33;101384.00;;;5.40
60966;BMP180;46834;51.100;6.886;2023-02-26T06:04:59;101388.00;;;5.40
60966;BMP180;46834;51.100;6.886;2023-02-26T06:07:25;101399.00;;;5.40
60966;BMP180;46834;51.100;6.886;2023-02-26T06:09:51;101393.00;;;5.40
60966;BMP180;46834;51.100;6.886;2023-02-26T06:12:17;101408.00;;;5.40
60966;BMP180;46834;51.100;6.886;2023-02-26T06:14:43;101408.00;;;5.30
60966;BMP180;46834;51.100;6.886;2023-02-26T06:17:08;101418.00;;;5.30
60966;BMP180;46834;51.100;6.886;2023-02-26T06:19:34;101421.00;;;5.30
60966;BMP180;46834;51.100;6.886;2023-02-26T06:22:00;101421.00;;;5.30
60966;BMP180;46834;51.100;6.886;2023-02-26T06:24:26;101511.00;;;5.30
60966;BMP180;46834;51.100;6.886;2023-02-26T06:26:52;101502.00;;;5.30
60966;BMP180;46834;51.100;6.886;2023-02-26T06:29:18;101518.00;;;5.30
60966;BMP180;46834;51.100;6.886;2023-02-26T06:31:46;101526.00;;;5.30
60966;BMP180;46834;51.100;6.886;2023-02-26T06:34:11;101518.00;;;5.20
60966;BMP180;46834;51.100;6.886;2023-02-26T06:36:37;101531.00;;;5.20
60966;BMP180;46834;51.100;6.886;2023-02-26T06:39:03;101534.00;;;5.20
60966;BMP180;46834;51.100;6.886;2023-02-26T06:41:29;101529.00;;;5.20
60966;BMP180;46834;51.100;6.886;2023-02-26T06:43:55;101530.00;;;5.20
60966;BMP180;46834;51.100;6.886;2023-02-26T06:46:20;101534.00;;;5.20
60966;BMP180;46834;51.100;6.886;2023-02-26T06:48:46;101553.00;;;5.20
60966;BMP180;46834;51.100;6.886;2023-02-26T06:51:12;101544.00;;;5.10
60966;BMP180;46834;51.100;6.886;2023-02-26T06:53:37;101552.00;;;5.10
60966;BMP180;46834;51.100;6.886;2023-02-26T06:56:04;101562.00;;;5.10
60966;BMP180;46834;51.100;6.886;2023-02-26T06:58:29;101552.00;;;5.10
60966;BMP180;46834;51.100;6.886;2023-02-26T07:00:55;101570.00;;;5.10
60966;BMP180;46834;51.100;6.886;2023-02-26T07:03:21;101564.00;;;5.10
60966;BMP180;46834;51.100;6.886;2023-02-26T07:05:47;101578.00;;;5.10
60966;BMP180;46834;51.100;6.886;2023-02-26T07:08:13;101587.00;;;5.20
60966;BMP180;46834;51.100;6.886;2023-02-26T07:10:40;101599.00;;;5.10
60966;BMP180;46834;51.100;6.886;2023-02-26T07:13:06;101597.00;;;5.10
60966;BMP180;46834;51.100;6.886;2023-02-26T07:15:32;101601.00;;;5.10
60966;BMP180;46834;51.100;6.886;2023-02-26T07:17:58;101595.00;;;5.10
60966;BMP180;46834;51.100;6.886;2023-02-26T07:20:27;101604.00;;;5.10
60966;BMP180;46834;51.100;6.886;2023-02-26T07:22:53;101618.00;;;5.20
60966;BMP180;46834;51.100;6.886;2023-02-26T07:25:19;101630.00;;;5.20
60966;BMP180;46834;51.100;6.886;2023-02-26T07:27:44;101631.00;;;5.20
60966;BMP180;46834;51.100;6.886;2023-02-26T07:30:11;101631.00;;;5.20
60966;BMP180;46834;51.100;6.886;2023-02-26T07:32:37;101637.00;;;5.10
60966;BMP180;46834;51.100;6.886;2023-02-26T07:35:03;101647.00;;;5.10
60966;BMP180;46834;51.100;6.886;2023-02-26T07:37:29;101645.00;;;5.10
60966;BMP180;46834;51.100;6.886;2023-02-26T07:39:55;101651.00;;;5.20
60966;BMP180;46834;51.100;6.886;2023-02-26T07:42:20;101660.00;;;5.20
60966;BMP180;46834;51.100;6.886;2023-02-26T07:44:46;101647.00;;;5.20
60966;BMP180;46834;51.100;6.886;2023-02-26T07:47:12;101643.00;;;5.20
60966;BMP180;46834;51.100;6.886;2023-02-26T07:49:38;101662.00;;;5.20
60966;BMP180;46834;51.100;6.886;2023-02-26T07:52:04;101667.00;;;5.20
60966;BMP180;46834;51.100;6.886;2023-02-26T07:54:33;101664.00;;;5.30
60966;BMP180;46834;51.100;6.886;2023-02-26T07:56:59;101678.00;;;5.30
60966;BMP180;46834;51.100;6.886;2023-02-26T07:59:25;101675.00;;;5.30
60966;BMP180;46834;51.100;6.886;2023-02-26T08:01:51;101684.00;;;5.40
60966;BMP180;46834;51.100;6.886;2023-02-26T08:04:17;101677.00;;;5.40
60966;BMP180;46834;51.100;6.886;2023-02-26T08:06:42;101682.00;;;5.50
60966;BMP180;46834;51.100;6.886;2023-02-26T08:09:08;101691.00;;;5.50
60966;BMP180;46834;51.100;6.886;2023-02-26T08:11:34;101689.00;;;5.50
60966;BMP180;46834;51.100;6.886;2023-02-26T08:14:05;101689.00;;;5.50
60966;BMP180;46834;51.100;6.886;2023-02-26T08:16:31;101696.00;;;5.60
60966;BMP180;46834;51.100;6.886;2023-02-26T08:18:56;101699.00;;;5.60
60966;BMP180;46834;51.100;6.886;2023-02-26T08:21:23;101702.00;;;5.70
60966;BMP180;46834;51.100;6.886;2023-02-26T08:23:48;101693.00;;;5.70
60966;BMP180;46834;51.100;6.886;2023-02-26T08:26:14;101690.00;;;5.70
60966;BMP180;46834;51.100;6.886;2023-02-26T08:28:40;101698.00;;;5.70
60966;BMP180;46834;51.100;6.886;2023-02-26T08:31:06;101693.00;;;5.70
60966;BMP180;46834;51.100;6.886;2023-02-26T08:33:32;101701.00;;;5.80
60966;BMP180;46834;51.100;6.886;2023-02-26T08:35:59;101714.00;;;5.80
60966;BMP180;46834;51.100;6.886;2023-02-26T08:38:27;101715.00;;;5.80
60966;BMP180;46834;51.100;6.886;2023-02-26T08:40:54;101704.00;;;5.80
60966;BMP180;46834;51.100;6.886;2023-02-26T08:43:20;101706.00;;;5.80
60966;BMP180;46834;51.100;6.886;2023-02-26T08:45:46;101717.00;;;5.80
60966;BMP180;46834;51.100;6.886;2023-02-26T08:48:13;101709.00;;;5.80
60966;BMP180;46834;51.100;6.886;2023-02-26T08:50:39;101718.00;;;5.80
60966;BMP180;46834;51.100;6.886;2023-02-26T08:53:05;101724.00;;;5.90
60966;BMP180;46834;51.100;6.886;2023-02-26T08:55:32;101720.00;;;5.90
60966;BMP180;46834;51.100;6.886;2023-02-26T08:58:02;101733.00;;;5.90
60966;BMP180;46834;51.100;6.886;2023-02-26T09:00:28;101729.00;;;5.90
60966;BMP180;46834;51.100;6.886;2023-02-26T09:02:54;101741.00;;;6.00
60966;BMP180;46834;51.100;6.886;2023-02-26T09:05:20;101736.00;;;6.00
60966;BMP180;46834;51.100;6.886;2023-02-26T09:07:46;101751.00;;;6.00
60966;BMP180;46834;51.100;6.886;2023-02-26T09:10:13;101734.00;;;6.00
60966;BMP180;46834;51.100;6.886;2023-02-26T09:12:40;101758.00;;;6.10
60966;BMP180;46834;51.100;6.886;2023-02-26T09:15:08;101756.00;;;6.10
60966;BMP180;46834;51.100;6.886;2023-02-26T09:17:35;101762.00;;;6.10
60966;BMP180;46834;51.100;6.886;2023-02-26T09:20:00;101755.00;;;6.10
60966;BMP180;46834;51.100;6.886;2023-02-26T09:22:26;101752.00;;;6.20
60966;BMP180;46834;51.100;6.886;2023-02-26T09:24:52;101767.00;;;6.20
60966;BMP180;46834;51.100;6.886;2023-02-26T09:27:18;101768.00;;;6.30
60966;BMP180;46834;51.100;6.886;2023-02-26T09:29:43;101768.00;;;6.30
60966;BMP180;46834;51.100;6.886;2023-02-26T09:32:09;101775.00;;;6.40
60966;BMP180;46834;51.100;6.886;2023-02-26T09:34:38;101790.00;;;6.40
60966;BMP180;46834;51.100;6.886;2023-02-26T09:37:06;101776.00;;;6.50
60966;BMP180;46834;51.100;6.886;2023-02-26T09:39:33;101792.00;;;6.50
60966;BMP180;46834;51.100;6.886;2023-02-26T09:42:42;101793.00;;;6.50
60966;BMP180;46834;51.100;6.886;2023-02-26T09:45:40;101801.00;;;6.50
60966;BMP180;46834;51.100;6.886;2023-02-26T09:48:13;101816.00;;;6.50
60966;BMP180;46834;51.100;6.886;2023-02-26T09:50:57;101810.00;;;6.50
60966;BMP180;46834;51.100;6.886;2023-02-26T09:53:25;101807.00;;;6.60
60966;BMP180;46834;51.100;6.886;2023-02-26T09:55:58;101797.00;;;6.60
60966;BMP180;46834;51.100;6.886;2023-02-26T09:58:36;101815.00;;;6.60
60966;BMP180;46834;51.100;6.886;2023-02-26T10:01:33;101813.00;;;6.60
60966;BMP180;46834;51.100;6.886;2023-02-26T10:07:02;101815.00;;;6.60
60966;BMP180;46834;51.100;6.886;2023-02-26T10:12:45;101815.00;;;6.70
60966;BMP180;46834;51.100;6.886;2023-02-26T10:15:22;101829.00;;;6.60
60966;BMP180;46834;51.100;6.886;2023-02-26T10:18:25;101830.00;;;6.60
60966;BMP180;46834;51.100;6.886;2023-02-26T10:21:10;101835.00;;;6.60
60966;BMP180;46834;51.100;6.886;2023-02-26T10:23:51;101834.00;;;6.60
60966;BMP180;46834;51.100;6.886;2023-02-26T10:26:22;101843.00;;;6.70
60966;BMP180;46834;51.100;6.886;2023-02-26T10:29:17;101849.00;;;6.60
60966;BMP180;46834;51.100;6.886;2023-02-26T10:32:32;101864.00;;;6.60
60966;BMP180;46834;51.100;6.886;2023-02-26T10:35:05;101848.00;;;6.60
60966;BMP180;46834;51.100;6.886;2023-02-26T10:37:50;101855.00;;;6.70
60966;BMP180;46834;51.100;6.886;2023-02-26T10:40:41;101851.00;;;6.70
60966;BMP180;46834;51.100;6.886;2023-02-26T10:43:38;101849.00;;;6.70
60966;BMP180;46834;51.100;6.886;2023-02-26T10:46:29;101857.00;;;6.70
60966;BMP180;46834;51.100;6.886;2023-02-26T10:49:35;101852.00;;;6.70
60966;BMP180;46834;51.100;6.886;2023-02-26T10:52:16;101861.00;;;6.80
60966;BMP180;46834;51.100;6.886;2023-02-26T10:55:40;101858.00;;;6.90
60966;BMP180;46834;51.100;6.886;2023-02-26T10:58:15;101874.00;;;7.00
60966;BMP180;46834;51.100;6.886;2023-02-26T11:00:46;101870.00;;;7.10
60966;BMP180;46834;51.100;6.886;2023-02-26T11:03:24;101872.00;;;7.10
60966;BMP180;46834;51.100;6.886;2023-02-26T11:05:53;101861.00;;;7.20
60966;BMP180;46834;51.100;6.886;2023-02-26T11:08:34;101876.00;;;7.20
60966;BMP180;46834;51.100;6.886;2023-02-26T11:11:03;101880.00;;;7.30
60966;BMP180;46834;51.100;6.886;2023-02-26T11:13:33;101871.00;;;7.30
60966;BMP180;46834;51.100;6.886;2023-02-26T11:16:10;101878.00;;;7.40
60966;BMP180;46834;51.100;6.886;2023-02-26T11:18:49;101875.00;;;7.40
60966;BMP180;46834;51.100;6.886;2023-02-26T11:21:26;101875.00;;;7.50
60966;BMP180;46834;51.100;6.886;2023-02-26T11:24:10;101883.00;;;7.50
60966;BMP180;46834;51.100;6.886;2023-02-26T11:26:48;101879.00;;;7.60
60966;BMP180;46834;51.100;6.886;2023-02-26T11:29:18;101877.00;;;7.60
60966;BMP180;46834;51.100;6.886;2023-02-26T11:31:51;101877.00;;;7.70
60966;BMP180;46834;51.100;6.886;2023-02-26T11:34:22;101879.00;;;7.70
60966;BMP180;46834;51.100;6.886;2023-02-26T11:36:49;101890.00;;;7.90
60966;BMP180;46834;51.100;6.886;2023-02-26T11:39:27;101885.00;;;7.90
60966;BMP180;46834;51.100;6.886;2023-02-26T11:41:57;101882.00;;;8.00
60966;BMP180;46834;51.100;6.886;2023-02-26T11:44:42;101893.00;;;8.00
60966;BMP180;46834;51.100;6.886;2023-02-26T11:47:17;101896.00;;;8.10
60966;BMP180;46834;51.100;6.886;2023-02-26T11:49:54;101883.00;;;8.10
60966;BMP180;46834;51.100;6.886;2023-02-26T11:52:43;101903.00;;;8.10
60966;BMP180;46834;51.100;6.886;2023-02-26T11:55:38;101886.00;;;8.10
60966;BMP180;46834;51.100;6.886;2023-02-26T11:58:23;101881.00;;;8.10
60966;BMP180;46834;51.100;6.886;2023-02-26T12:00:57;101870.00;;;8.20
60966;BMP180;46834;51.100;6.886;2023-02-26T12:03:27;101876.00;;;8.20
60966;BMP180;46834;51.100;6.886;2023-02-26T12:05:54;101888.00;;;8.20
60966;BMP180;46834;51.100;6.886;2023-02-26T12:08:37;101877.00;;;8.20
60966;BMP180;46834;51.100;6.886;2023-02-26T12:20:53;101870.00;;;8.30
60966;BMP180;46834;51.100;6.886;2023-02-26T12:29:27;101850.00;;;8.40
60966;BMP180;46834;51.100;6.886;2023-02-26T12:44:46;101864.00;;;8.90
60966;BMP180;46834;51.100;6.886;2023-02-26T12:50:34;101862.00;;;9.00
60966;BMP180;46834;51.100;6.886;2023-02-26T12:53:31;101858.00;;;9.00
60966;BMP180;46834;51.100;6.886;2023-02-26T13:02:49;101861.00;;;9.10
60966;BMP180;46834;51.100;6.886;2023-02-26T13:05:25;101860.00;;;9.10
60966;BMP180;46834;51.100;6.886;2023-02-26T13:08:03;101862.00;;;9.20
60966;BMP180;46834;51.100;6.886;2023-02-26T13:13:50;101874.00;;;9.20
60966;BMP180;46834;51.100;6.886;2023-02-26T13:16:34;101883.00;;;9.20
60966;BMP180;46834;51.100;6.886;2023-02-26T13:21:56;101887.00;;;9.10
60966;BMP180;46834;51.100;6.886;2023-02-26T13:24:37;101882.00;;;9.10
60966;BMP180;46834;51.100;6.886;2023-02-26T13:27:07;101878.00;;;9.10
60966;BMP180;46834;51.100;6.886;2023-02-26T13:29:46;101885.00;;;9.10
60966;BMP180;46834;51.100;6.886;2023-02-26T13:32:23;101876.00;;;9.20
60966;BMP180;46834;51.100;6.886;2023-02-26T13:37:55;101875.00;;;9.30
60966;BMP180;46834;51.100;6.886;2023-02-26T13:40:44;101875.00;;;9.30
60966;BMP180;46834;51.100;6.886;2023-02-26T13:51:24;101875.00;;;9.40
60966;BMP180;46834;51.100;6.886;2023-02-26T13:53:59;101871.00;;;9.40
60966;BMP180;46834;51.100;6.886;2023-02-26T14:07:13;101874.00;;;9.40
60966;BMP180;46834;51.100;6.886;2023-02-26T14:10:03;101885.00;;;9.40
60966;BMP180;46834;51.100;6.886;2023-02-26T14:12:42;101875.00;;;9.40
60966;BMP180;46834;51.100;6.886;2023-02-26T14:17:57;101881.00;;;9.40
60966;BMP180;46834;51.100;6.886;2023-02-26T14:20:30;101880.00;;;9.50
60966;BMP180;46834;51.100;6.886;2023-02-26T14:25:51;101871.00;;;9.50
60966;BMP180;46834;51.100;6.886;2023-02-26T14:31:11;101884.00;;;9.50
60966;BMP180;46834;51.100;6.886;2023-02-26T14:34:06;101902.00;;;9.50
60966;BMP180;46834;51.100;6.886;2023-02-26T14:36:45;101897.00;;;9.60
60966;BMP180;46834;51.100;6.886;2023-02-26T14:39:39;101891.00;;;9.60
60966;BMP180;46834;51.100;6.886;2023-02-26T14:42:22;101894.00;;;9.70
60966;BMP180;46834;51.100;6.886;2023-02-26T14:47:33;101886.00;;;9.80
60966;BMP180;46834;51.100;6.886;2023-02-26T14:49:58;101890.00;;;9.80
60966;BMP180;46834;51.100;6.886;2023-02-26T14:53:04;101896.00;;;9.80
60966;BMP180;46834;51.100;6.886;2023-02-26T14:56:10;101891.00;;;9.80
60966;BMP180;46834;51.100;6.886;2023-02-26T15:01:48;101888.00;;;9.80
60966;BMP180;46834;51.100;6.886;2023-02-26T15:04:53;101896.00;;;9.80
60966;BMP180;46834;51.100;6.886;2023-02-26T15:23:06;101898.00;;;9.90
60966;BMP180;46834;51.100;6.886;2023-02-26T15:25:40;101912.00;;;9.90
60966;BMP180;46834;51.100;6.886;2023-02-26T15:30:49;101902.00;;;10.00
60966;BMP180;46834;51.100;6.886;2023-02-26T15:33:22;101907.00;;;10.00
60966;BMP180;46834;51.100;6.886;2023-02-26T15:35:50;101905.00;;;10.00
60966;BMP180;46834;51.100;6.886;2023-02-26T15:38:17;101907.00;;;10.10
60966;BMP180;46834;51.100;6.886;2023-02-26T15:40:44;101922.00;;;10.10
60966;BMP180;46834;51.100;6.886;2023-02-26T15:43:22;101914.00;;;10.00
60966;BMP180;46834;51.100;6.886;2023-02-26T15:45:54;101905.00;;;10.10
60966;BMP180;46834;51.100;6.886;2023-02-26T15:48:27;101897.00;;;10.10
60966;BMP180;46834;51.100;6.886;2023-02-26T15:51:00;101917.00;;;10.10
60966;BMP180;46834;51.100;6.886;2023-02-26T15:53:41;101919.00;;;10.00
60966;BMP180;46834;51.100;6.886;2023-02-26T15:56:14;101914.00;;;10.00
60966;BMP180;46834;51.100;6.886;2023-02-26T15:58:53;101925.00;;;10.00
60966;BMP180;46834;51.100;6.886;2023-02-26T16:01:23;101937.00;;;10.00
60966;BMP180;46834;51.100;6.886;2023-02-26T16:03:52;101930.00;;;10.00
60966;BMP180;46834;51.100;6.886;2023-02-26T16:06:29;101936.00;;;10.00
60966;BMP180;46834;51.100;6.886;2023-02-26T16:08:55;101925.00;;;9.90
60966;BMP180;46834;51.100;6.886;2023-02-26T16:11:23;101930.00;;;9.80
60966;BMP180;46834;51.100;6.886;2023-02-26T16:13:52;101932.00;;;9.80
60966;BMP180;46834;51.100;6.886;2023-02-26T16:16:51;101943.00;;;9.70
60966;BMP180;46834;51.100;6.886;2023-02-26T16:19:30;101934.00;;;9.70
60966;BMP180;46834;51.100;6.886;2023-02-26T16:21:58;101944.00;;;9.70
60966;BMP180;46834;51.100;6.886;2023-02-26T16:24:27;101924.00;;;9.60
60966;BMP180;46834;51.100;6.886;2023-02-26T16:26:59;101939.00;;;9.60
60966;BMP180;46834;51.100;6.886;2023-02-26T16:29:30;101934.00;;;9.60
60966;BMP180;46834;51.100;6.886;2023-02-26T16:32:00;101935.00;;;9.50
60966;BMP180;46834;51.100;6.886;2023-02-26T16:34:39;101946.00;;;9.50
60966;BMP180;46834;51.100;6.886;2023-02-26T16:37:33;101956.00;;;9.50
60966;BMP180;46834;51.100;6.886;2023-02-26T16:40:18;101951.00;;;9.40
60966;BMP180;46834;51.100;6.886;2023-02-26T16:45:53;101961.00;;;9.40
60966;BMP180;46834;51.100;6.886;2023-02-26T16:51:19;101975.00;;;9.40
60966;BMP180;46834;51.100;6.886;2023-02-26T16:53:55;101968.00;;;9.40
60966;BMP180;46834;51.100;6.886;2023-02-26T16:56:28;101983.00;;;9.40
60966;BMP180;46834;51.100;6.886;2023-02-26T16:59:16;101981.00;;;9.30